<?xml version="1.0" encoding="UTF-8" standalone="no" ?>
<gpx xmlns="http://www.topografix.com/GPX/1/1" xmlns:xsi="http://www.w3.org/2001/XMLSchema-instance" xsi:schemaLocation="http://www.topografix.com/GPX/1/1 http://www.topografix.com/GPX/1/1/gpx.xsd" version="1.1" creator="VisuGPX - https://www.visugpx.com">
  <metadata>
    <name>Course à pied le midi</name>
  </metadata>
  <trk>
    <name><![CDATA[Course à pied le midi_1]]></name>
    <trkseg>
      <trkpt lat="48.72431" lon="7.03748">
        <ele>250.5</ele>
        <time>2024-01-21T11:13:50Z</time>
      </trkpt>
      <trkpt lat="48.72433" lon="7.03749">
        <ele>250.5</ele>
        <time>2024-01-21T11:13:51Z</time>
      </trkpt>
      <trkpt lat="48.72436" lon="7.03747">
        <ele>250.5</ele>
        <time>2024-01-21T11:13:53Z</time>
      </trkpt>
      <trkpt lat="48.72438" lon="7.03738">
        <ele>250.4</ele>
        <time>2024-01-21T11:13:57Z</time>
      </trkpt>
      <trkpt lat="48.7243" lon="7.03711">
        <ele>250.3</ele>
        <time>2024-01-21T11:14:06Z</time>
      </trkpt>
      <trkpt lat="48.72433" lon="7.03684">
        <ele>249.8</ele>
        <time>2024-01-21T11:14:15Z</time>
      </trkpt>
      <trkpt lat="48.72424" lon="7.03667">
        <ele>249.6</ele>
        <time>2024-01-21T11:14:23Z</time>
      </trkpt>
      <trkpt lat="48.72427" lon="7.03652">
        <ele>249.3</ele>
        <time>2024-01-21T11:14:36Z</time>
      </trkpt>
      <trkpt lat="48.72415" lon="7.03632">
        <ele>249.1</ele>
        <time>2024-01-21T11:14:44Z</time>
      </trkpt>
      <trkpt lat="48.72407" lon="7.03622">
        <ele>248.9</ele>
        <time>2024-01-21T11:14:49Z</time>
      </trkpt>
      <trkpt lat="48.7242" lon="7.03603">
        <ele>248.7</ele>
        <time>2024-01-21T11:14:56Z</time>
      </trkpt>
      <trkpt lat="48.72439" lon="7.03591">
        <ele>248.6</ele>
        <time>2024-01-21T11:15:03Z</time>
      </trkpt>
      <trkpt lat="48.72454" lon="7.03574">
        <ele>248.7</ele>
        <time>2024-01-21T11:15:09Z</time>
      </trkpt>
      <trkpt lat="48.7247" lon="7.03552">
        <ele>249.1</ele>
        <time>2024-01-21T11:15:16Z</time>
      </trkpt>
      <trkpt lat="48.72482" lon="7.03532">
        <ele>249.3</ele>
        <time>2024-01-21T11:15:22Z</time>
      </trkpt>
      <trkpt lat="48.72486" lon="7.03529">
        <ele>249.4</ele>
        <time>2024-01-21T11:15:24Z</time>
      </trkpt>
      <trkpt lat="48.72491" lon="7.03532">
        <ele>249.5</ele>
        <time>2024-01-21T11:15:26Z</time>
      </trkpt>
      <trkpt lat="48.72493" lon="7.0354">
        <ele>249.3</ele>
        <time>2024-01-21T11:15:28Z</time>
      </trkpt>
      <trkpt lat="48.72482" lon="7.03565">
        <ele>248.7</ele>
        <time>2024-01-21T11:15:35Z</time>
      </trkpt>
      <trkpt lat="48.72469" lon="7.03585">
        <ele>248.6</ele>
        <time>2024-01-21T11:15:42Z</time>
      </trkpt>
      <trkpt lat="48.72458" lon="7.03611">
        <ele>248.7</ele>
        <time>2024-01-21T11:15:50Z</time>
      </trkpt>
      <trkpt lat="48.72444" lon="7.03632">
        <ele>249</ele>
        <time>2024-01-21T11:15:58Z</time>
      </trkpt>
      <trkpt lat="48.72445" lon="7.03659">
        <ele>249.4</ele>
        <time>2024-01-21T11:16:05Z</time>
      </trkpt>
      <trkpt lat="48.7246" lon="7.03674">
        <ele>249.4</ele>
        <time>2024-01-21T11:16:12Z</time>
      </trkpt>
      <trkpt lat="48.72478" lon="7.03671">
        <ele>248.9</ele>
        <time>2024-01-21T11:16:19Z</time>
      </trkpt>
      <trkpt lat="48.72497" lon="7.03663">
        <ele>248.3</ele>
        <time>2024-01-21T11:16:26Z</time>
      </trkpt>
      <trkpt lat="48.72515" lon="7.03648">
        <ele>247.7</ele>
        <time>2024-01-21T11:16:33Z</time>
      </trkpt>
      <trkpt lat="48.7253" lon="7.03643">
        <ele>247.2</ele>
        <time>2024-01-21T11:16:39Z</time>
      </trkpt>
      <trkpt lat="48.72535" lon="7.03668">
        <ele>247</ele>
        <time>2024-01-21T11:16:46Z</time>
      </trkpt>
      <trkpt lat="48.72521" lon="7.03684">
        <ele>247.5</ele>
        <time>2024-01-21T11:16:52Z</time>
      </trkpt>
      <trkpt lat="48.72514" lon="7.03688">
        <ele>247.7</ele>
        <time>2024-01-21T11:16:55Z</time>
      </trkpt>
      <trkpt lat="48.72504" lon="7.03713">
        <ele>248</ele>
        <time>2024-01-21T11:17:02Z</time>
      </trkpt>
      <trkpt lat="48.72502" lon="7.0373">
        <ele>248.2</ele>
        <time>2024-01-21T11:17:07Z</time>
      </trkpt>
      <trkpt lat="48.72503" lon="7.03735">
        <ele>248.2</ele>
        <time>2024-01-21T11:17:13Z</time>
      </trkpt>
      <trkpt lat="48.72505" lon="7.03737">
        <ele>248.1</ele>
        <time>2024-01-21T11:17:15Z</time>
      </trkpt>
      <trkpt lat="48.72525" lon="7.03733">
        <ele>247.4</ele>
        <time>2024-01-21T11:17:24Z</time>
      </trkpt>
      <trkpt lat="48.72541" lon="7.0375">
        <ele>246.7</ele>
        <time>2024-01-21T11:17:31Z</time>
      </trkpt>
      <trkpt lat="48.7255" lon="7.03779">
        <ele>246.5</ele>
        <time>2024-01-21T11:17:37Z</time>
      </trkpt>
      <trkpt lat="48.72559" lon="7.03803">
        <ele>246.4</ele>
        <time>2024-01-21T11:17:43Z</time>
      </trkpt>
      <trkpt lat="48.72559" lon="7.03832">
        <ele>246.6</ele>
        <time>2024-01-21T11:17:50Z</time>
      </trkpt>
      <trkpt lat="48.72565" lon="7.0386">
        <ele>247.3</ele>
        <time>2024-01-21T11:17:57Z</time>
      </trkpt>
      <trkpt lat="48.72578" lon="7.03882">
        <ele>248.5</ele>
        <time>2024-01-21T11:18:04Z</time>
      </trkpt>
      <trkpt lat="48.72597" lon="7.03893">
        <ele>249</ele>
        <time>2024-01-21T11:18:11Z</time>
      </trkpt>
      <trkpt lat="48.72616" lon="7.03905">
        <ele>250.4</ele>
        <time>2024-01-21T11:18:18Z</time>
      </trkpt>
      <trkpt lat="48.7263" lon="7.03926">
        <ele>250.1</ele>
        <time>2024-01-21T11:18:24Z</time>
      </trkpt>
      <trkpt lat="48.72641" lon="7.03947">
        <ele>247.5</ele>
        <time>2024-01-21T11:18:30Z</time>
      </trkpt>
      <trkpt lat="48.72654" lon="7.03972">
        <ele>247.7</ele>
        <time>2024-01-21T11:18:37Z</time>
      </trkpt>
      <trkpt lat="48.72665" lon="7.03995">
        <ele>249</ele>
        <time>2024-01-21T11:18:44Z</time>
      </trkpt>
      <trkpt lat="48.72676" lon="7.04018">
        <ele>250.1</ele>
        <time>2024-01-21T11:18:51Z</time>
      </trkpt>
      <trkpt lat="48.72676" lon="7.04021">
        <ele>250.1</ele>
        <time>2024-01-21T11:18:52Z</time>
      </trkpt>
      <trkpt lat="48.72661" lon="7.04026">
        <ele>249.8</ele>
        <time>2024-01-21T11:19:00Z</time>
      </trkpt>
      <trkpt lat="48.72642" lon="7.04037">
        <ele>249.3</ele>
        <time>2024-01-21T11:19:09Z</time>
      </trkpt>
      <trkpt lat="48.72625" lon="7.04031">
        <ele>249</ele>
        <time>2024-01-21T11:19:15Z</time>
      </trkpt>
      <trkpt lat="48.72612" lon="7.04026">
        <ele>248.5</ele>
        <time>2024-01-21T11:19:20Z</time>
      </trkpt>
      <trkpt lat="48.72611" lon="7.04023">
        <ele>248.5</ele>
        <time>2024-01-21T11:19:54Z</time>
      </trkpt>
      <trkpt lat="48.72614" lon="7.04011">
        <ele>248.7</ele>
        <time>2024-01-21T11:19:59Z</time>
      </trkpt>
      <trkpt lat="48.72608" lon="7.04005">
        <ele>248.5</ele>
        <time>2024-01-21T11:20:03Z</time>
      </trkpt>
      <trkpt lat="48.72593" lon="7.04019">
        <ele>247.8</ele>
        <time>2024-01-21T11:20:12Z</time>
      </trkpt>
      <trkpt lat="48.72577" lon="7.04034">
        <ele>247.8</ele>
        <time>2024-01-21T11:20:19Z</time>
      </trkpt>
      <trkpt lat="48.72562" lon="7.04052">
        <ele>247.8</ele>
        <time>2024-01-21T11:20:26Z</time>
      </trkpt>
      <trkpt lat="48.72546" lon="7.04068">
        <ele>247.8</ele>
        <time>2024-01-21T11:20:33Z</time>
      </trkpt>
      <trkpt lat="48.72528" lon="7.04079">
        <ele>248.1</ele>
        <time>2024-01-21T11:20:40Z</time>
      </trkpt>
      <trkpt lat="48.7251" lon="7.04089">
        <ele>248.8</ele>
        <time>2024-01-21T11:20:48Z</time>
      </trkpt>
      <trkpt lat="48.7249" lon="7.04093">
        <ele>249.7</ele>
        <time>2024-01-21T11:20:56Z</time>
      </trkpt>
      <trkpt lat="48.7247" lon="7.04094">
        <ele>250.7</ele>
        <time>2024-01-21T11:21:03Z</time>
      </trkpt>
      <trkpt lat="48.72451" lon="7.04095">
        <ele>252.1</ele>
        <time>2024-01-21T11:21:10Z</time>
      </trkpt>
      <trkpt lat="48.72432" lon="7.04095">
        <ele>253.7</ele>
        <time>2024-01-21T11:21:17Z</time>
      </trkpt>
      <trkpt lat="48.72416" lon="7.04079">
        <ele>254.4</ele>
        <time>2024-01-21T11:21:24Z</time>
      </trkpt>
      <trkpt lat="48.72402" lon="7.0406">
        <ele>255</ele>
        <time>2024-01-21T11:21:30Z</time>
      </trkpt>
      <trkpt lat="48.72386" lon="7.04043">
        <ele>255.5</ele>
        <time>2024-01-21T11:21:37Z</time>
      </trkpt>
      <trkpt lat="48.72368" lon="7.04035">
        <ele>255.8</ele>
        <time>2024-01-21T11:21:44Z</time>
      </trkpt>
      <trkpt lat="48.72365" lon="7.04021">
        <ele>255.8</ele>
        <time>2024-01-21T11:21:47Z</time>
      </trkpt>
      <trkpt lat="48.72375" lon="7.03996">
        <ele>255.2</ele>
        <time>2024-01-21T11:21:53Z</time>
      </trkpt>
      <trkpt lat="48.7239" lon="7.03976">
        <ele>254.2</ele>
        <time>2024-01-21T11:21:59Z</time>
      </trkpt>
      <trkpt lat="48.72405" lon="7.03957">
        <ele>253.1</ele>
        <time>2024-01-21T11:22:05Z</time>
      </trkpt>
      <trkpt lat="48.7242" lon="7.0394">
        <ele>252.2</ele>
        <time>2024-01-21T11:22:11Z</time>
      </trkpt>
      <trkpt lat="48.7243" lon="7.0392">
        <ele>251.5</ele>
        <time>2024-01-21T11:22:18Z</time>
      </trkpt>
      <trkpt lat="48.72419" lon="7.03897">
        <ele>251.6</ele>
        <time>2024-01-21T11:22:25Z</time>
      </trkpt>
      <trkpt lat="48.72406" lon="7.03876">
        <ele>251.9</ele>
        <time>2024-01-21T11:22:32Z</time>
      </trkpt>
      <trkpt lat="48.72394" lon="7.03853">
        <ele>252</ele>
        <time>2024-01-21T11:22:39Z</time>
      </trkpt>
      <trkpt lat="48.72382" lon="7.03829">
        <ele>252.3</ele>
        <time>2024-01-21T11:22:46Z</time>
      </trkpt>
      <trkpt lat="48.72375" lon="7.03804">
        <ele>252.6</ele>
        <time>2024-01-21T11:22:54Z</time>
      </trkpt>
      <trkpt lat="48.72381" lon="7.03794">
        <ele>252.5</ele>
        <time>2024-01-21T11:22:58Z</time>
      </trkpt>
      <trkpt lat="48.72385" lon="7.03797">
        <ele>252.3</ele>
        <time>2024-01-21T11:23:00Z</time>
      </trkpt>
      <trkpt lat="48.72399" lon="7.03821">
        <ele>251.7</ele>
        <time>2024-01-21T11:23:07Z</time>
      </trkpt>
      <trkpt lat="48.7241" lon="7.03834">
        <ele>251.4</ele>
        <time>2024-01-21T11:23:12Z</time>
      </trkpt>
      <trkpt lat="48.7243" lon="7.03827">
        <ele>250.7</ele>
        <time>2024-01-21T11:23:20Z</time>
      </trkpt>
      <trkpt lat="48.72447" lon="7.03813">
        <ele>249.8</ele>
        <time>2024-01-21T11:23:28Z</time>
      </trkpt>
      <trkpt lat="48.72451" lon="7.03817">
        <ele>249.6</ele>
        <time>2024-01-21T11:23:30Z</time>
      </trkpt>
      <trkpt lat="48.72448" lon="7.03844">
        <ele>249.8</ele>
        <time>2024-01-21T11:23:37Z</time>
      </trkpt>
      <trkpt lat="48.72452" lon="7.03873">
        <ele>250</ele>
        <time>2024-01-21T11:23:45Z</time>
      </trkpt>
      <trkpt lat="48.72462" lon="7.03898">
        <ele>250.2</ele>
        <time>2024-01-21T11:23:54Z</time>
      </trkpt>
      <trkpt lat="48.72474" lon="7.03923">
        <ele>250.4</ele>
        <time>2024-01-21T11:24:03Z</time>
      </trkpt>
      <trkpt lat="48.72479" lon="7.03945">
        <ele>250.6</ele>
        <time>2024-01-21T11:24:10Z</time>
      </trkpt>
      <trkpt lat="48.72471" lon="7.03952">
        <ele>250.9</ele>
        <time>2024-01-21T11:24:14Z</time>
      </trkpt>
      <trkpt lat="48.72469" lon="7.0395">
        <ele>251</ele>
        <time>2024-01-21T11:24:57Z</time>
      </trkpt>
      <trkpt lat="48.72473" lon="7.03952">
        <ele>250.8</ele>
        <time>2024-01-21T11:24:59Z</time>
      </trkpt>
      <trkpt lat="48.72489" lon="7.03969">
        <ele>250.4</ele>
        <time>2024-01-21T11:25:06Z</time>
      </trkpt>
      <trkpt lat="48.72502" lon="7.03994">
        <ele>249.7</ele>
        <time>2024-01-21T11:25:13Z</time>
      </trkpt>
      <trkpt lat="48.72512" lon="7.04021">
        <ele>248.8</ele>
        <time>2024-01-21T11:25:20Z</time>
      </trkpt>
      <trkpt lat="48.72519" lon="7.04047">
        <ele>248.3</ele>
        <time>2024-01-21T11:25:27Z</time>
      </trkpt>
      <trkpt lat="48.72519" lon="7.04062">
        <ele>248.3</ele>
        <time>2024-01-21T11:25:32Z</time>
      </trkpt>
      <trkpt lat="48.7252" lon="7.04064">
        <ele>248.3</ele>
        <time>2024-01-21T11:25:33Z</time>
      </trkpt>
      <trkpt lat="48.72513" lon="7.04075">
        <ele>248.6</ele>
        <time>2024-01-21T11:26:49Z</time>
      </trkpt>
      <trkpt lat="48.72515" lon="7.04082">
        <ele>248.5</ele>
        <time>2024-01-21T11:26:52Z</time>
      </trkpt>
      <trkpt lat="48.72502" lon="7.041">
        <ele>249.2</ele>
        <time>2024-01-21T11:27:01Z</time>
      </trkpt>
      <trkpt lat="48.72482" lon="7.04105">
        <ele>250.2</ele>
        <time>2024-01-21T11:27:10Z</time>
      </trkpt>
      <trkpt lat="48.72462" lon="7.0411">
        <ele>251.2</ele>
        <time>2024-01-21T11:27:18Z</time>
      </trkpt>
      <trkpt lat="48.72442" lon="7.04108">
        <ele>252.7</ele>
        <time>2024-01-21T11:27:26Z</time>
      </trkpt>
      <trkpt lat="48.72424" lon="7.04105">
        <ele>254</ele>
        <time>2024-01-21T11:27:33Z</time>
      </trkpt>
      <trkpt lat="48.72411" lon="7.04087">
        <ele>254.8</ele>
        <time>2024-01-21T11:27:39Z</time>
      </trkpt>
      <trkpt lat="48.72398" lon="7.04063">
        <ele>255.1</ele>
        <time>2024-01-21T11:27:45Z</time>
      </trkpt>
      <trkpt lat="48.72385" lon="7.04045">
        <ele>255.5</ele>
        <time>2024-01-21T11:27:51Z</time>
      </trkpt>
      <trkpt lat="48.72367" lon="7.04042">
        <ele>256</ele>
        <time>2024-01-21T11:27:58Z</time>
      </trkpt>
      <trkpt lat="48.72362" lon="7.0403">
        <ele>256</ele>
        <time>2024-01-21T11:28:05Z</time>
      </trkpt>
      <trkpt lat="48.72363" lon="7.04033">
        <ele>256</ele>
        <time>2024-01-21T11:28:07Z</time>
      </trkpt>
      <trkpt lat="48.72363" lon="7.04025">
        <ele>255.9</ele>
        <time>2024-01-21T11:28:30Z</time>
      </trkpt>
      <trkpt lat="48.72361" lon="7.04016">
        <ele>255.8</ele>
        <time>2024-01-21T11:28:33Z</time>
      </trkpt>
      <trkpt lat="48.72374" lon="7.03996">
        <ele>255.2</ele>
        <time>2024-01-21T11:28:39Z</time>
      </trkpt>
      <trkpt lat="48.72388" lon="7.03978">
        <ele>254.3</ele>
        <time>2024-01-21T11:28:45Z</time>
      </trkpt>
      <trkpt lat="48.72403" lon="7.03956">
        <ele>253.2</ele>
        <time>2024-01-21T11:28:52Z</time>
      </trkpt>
      <trkpt lat="48.72416" lon="7.03937">
        <ele>252.3</ele>
        <time>2024-01-21T11:28:58Z</time>
      </trkpt>
      <trkpt lat="48.72418" lon="7.03936">
        <ele>252.1</ele>
        <time>2024-01-21T11:28:59Z</time>
      </trkpt>
      <trkpt lat="48.72417" lon="7.0394">
        <ele>252.3</ele>
        <time>2024-01-21T11:29:01Z</time>
      </trkpt>
      <trkpt lat="48.72413" lon="7.03948">
        <ele>252.6</ele>
        <time>2024-01-21T11:29:07Z</time>
      </trkpt>
      <trkpt lat="48.72418" lon="7.03922">
        <ele>252</ele>
        <time>2024-01-21T11:29:15Z</time>
      </trkpt>
      <trkpt lat="48.72407" lon="7.03896">
        <ele>252</ele>
        <time>2024-01-21T11:29:24Z</time>
      </trkpt>
      <trkpt lat="48.72396" lon="7.03872">
        <ele>252.1</ele>
        <time>2024-01-21T11:29:30Z</time>
      </trkpt>
      <trkpt lat="48.72384" lon="7.03847">
        <ele>252.4</ele>
        <time>2024-01-21T11:29:36Z</time>
      </trkpt>
      <trkpt lat="48.72374" lon="7.03823">
        <ele>252.6</ele>
        <time>2024-01-21T11:29:42Z</time>
      </trkpt>
      <trkpt lat="48.72369" lon="7.03802">
        <ele>252.8</ele>
        <time>2024-01-21T11:29:49Z</time>
      </trkpt>
      <trkpt lat="48.72385" lon="7.03782">
        <ele>252.3</ele>
        <time>2024-01-21T11:29:57Z</time>
      </trkpt>
      <trkpt lat="48.72389" lon="7.03773">
        <ele>252.2</ele>
        <time>2024-01-21T11:30:00Z</time>
      </trkpt>
      <trkpt lat="48.72404" lon="7.03754">
        <ele>251.6</ele>
        <time>2024-01-21T11:30:07Z</time>
      </trkpt>
      <trkpt lat="48.72408" lon="7.03749">
        <ele>251.5</ele>
        <time>2024-01-21T11:30:10Z</time>
      </trkpt>
      <trkpt lat="48.72412" lon="7.03751">
        <ele>251.4</ele>
        <time>2024-01-21T11:30:22Z</time>
      </trkpt>
      <trkpt lat="48.72424" lon="7.03744">
        <ele>251</ele>
        <time>2024-01-21T11:30:27Z</time>
      </trkpt>
      <trkpt lat="48.72437" lon="7.03749">
        <ele>250.6</ele>
        <time>2024-01-21T11:30:33Z</time>
      </trkpt>
      <trkpt lat="48.7244" lon="7.03744">
        <ele>250.5</ele>
        <time>2024-01-21T11:30:35Z</time>
      </trkpt>
      <trkpt lat="48.72435" lon="7.03717">
        <ele>250.3</ele>
        <time>2024-01-21T11:30:43Z</time>
      </trkpt>
      <trkpt lat="48.72425" lon="7.03692">
        <ele>250.1</ele>
        <time>2024-01-21T11:30:50Z</time>
      </trkpt>
      <trkpt lat="48.72411" lon="7.03671">
        <ele>249.9</ele>
        <time>2024-01-21T11:30:57Z</time>
      </trkpt>
      <trkpt lat="48.7241" lon="7.03666">
        <ele>249.8</ele>
        <time>2024-01-21T11:30:59Z</time>
      </trkpt>
      <trkpt lat="48.72425" lon="7.03686">
        <ele>249.9</ele>
        <time>2024-01-21T11:31:06Z</time>
      </trkpt>
      <trkpt lat="48.72436" lon="7.03711">
        <ele>250.2</ele>
        <time>2024-01-21T11:31:12Z</time>
      </trkpt>
      <trkpt lat="48.72439" lon="7.03717">
        <ele>250.2</ele>
        <time>2024-01-21T11:31:14Z</time>
      </trkpt>
      <trkpt lat="48.72456" lon="7.03708">
        <ele>249.7</ele>
        <time>2024-01-21T11:31:21Z</time>
      </trkpt>
      <trkpt lat="48.72473" lon="7.03697">
        <ele>249.2</ele>
        <time>2024-01-21T11:31:28Z</time>
      </trkpt>
      <trkpt lat="48.72492" lon="7.03696">
        <ele>248.6</ele>
        <time>2024-01-21T11:31:35Z</time>
      </trkpt>
      <trkpt lat="48.725" lon="7.0372">
        <ele>248.2</ele>
        <time>2024-01-21T11:31:42Z</time>
      </trkpt>
      <trkpt lat="48.72505" lon="7.03736">
        <ele>248.1</ele>
        <time>2024-01-21T11:31:47Z</time>
      </trkpt>
      <trkpt lat="48.7252" lon="7.03758">
        <ele>247.5</ele>
        <time>2024-01-21T11:31:54Z</time>
      </trkpt>
      <trkpt lat="48.72528" lon="7.03784">
        <ele>247.3</ele>
        <time>2024-01-21T11:32:00Z</time>
      </trkpt>
      <trkpt lat="48.72538" lon="7.03811">
        <ele>246.9</ele>
        <time>2024-01-21T11:32:07Z</time>
      </trkpt>
      <trkpt lat="48.72549" lon="7.03835">
        <ele>246.8</ele>
        <time>2024-01-21T11:32:14Z</time>
      </trkpt>
      <trkpt lat="48.72557" lon="7.03861">
        <ele>247.3</ele>
        <time>2024-01-21T11:32:21Z</time>
      </trkpt>
      <trkpt lat="48.72562" lon="7.0389">
        <ele>248.4</ele>
        <time>2024-01-21T11:32:28Z</time>
      </trkpt>
      <trkpt lat="48.72571" lon="7.03915">
        <ele>249</ele>
        <time>2024-01-21T11:32:35Z</time>
      </trkpt>
      <trkpt lat="48.72575" lon="7.03922">
        <ele>249.1</ele>
        <time>2024-01-21T11:32:37Z</time>
      </trkpt>
      <trkpt lat="48.72574" lon="7.03931">
        <ele>249.1</ele>
        <time>2024-01-21T11:33:51Z</time>
      </trkpt>
      <trkpt lat="48.72573" lon="7.03933">
        <ele>249.1</ele>
        <time>2024-01-21T11:33:52Z</time>
      </trkpt>
      <trkpt lat="48.72555" lon="7.03942">
        <ele>249.1</ele>
        <time>2024-01-21T11:34:00Z</time>
      </trkpt>
      <trkpt lat="48.72536" lon="7.03939">
        <ele>249.4</ele>
        <time>2024-01-21T11:34:06Z</time>
      </trkpt>
      <trkpt lat="48.72528" lon="7.03932">
        <ele>249.5</ele>
        <time>2024-01-21T11:34:09Z</time>
      </trkpt>
      <trkpt lat="48.72522" lon="7.03906">
        <ele>249</ele>
        <time>2024-01-21T11:34:15Z</time>
      </trkpt>
      <trkpt lat="48.72514" lon="7.0388">
        <ele>248.3</ele>
        <time>2024-01-21T11:34:21Z</time>
      </trkpt>
      <trkpt lat="48.72507" lon="7.03852">
        <ele>247.7</ele>
        <time>2024-01-21T11:34:28Z</time>
      </trkpt>
      <trkpt lat="48.72501" lon="7.03823">
        <ele>247.7</ele>
        <time>2024-01-21T11:34:35Z</time>
      </trkpt>
      <trkpt lat="48.72489" lon="7.03803">
        <ele>248.2</ele>
        <time>2024-01-21T11:34:45Z</time>
      </trkpt>
      <trkpt lat="48.72473" lon="7.03789">
        <ele>249</ele>
        <time>2024-01-21T11:35:00Z</time>
      </trkpt>
      <trkpt lat="48.72459" lon="7.03773">
        <ele>249.8</ele>
        <time>2024-01-21T11:35:12Z</time>
      </trkpt>
      <trkpt lat="48.72453" lon="7.03747">
        <ele>250</ele>
        <time>2024-01-21T11:35:22Z</time>
      </trkpt>
      <trkpt lat="48.72445" lon="7.03721">
        <ele>250.1</ele>
        <time>2024-01-21T11:35:33Z</time>
      </trkpt>
      <trkpt lat="48.72459" lon="7.03704">
        <ele>249.6</ele>
        <time>2024-01-21T11:35:46Z</time>
      </trkpt>
      <trkpt lat="48.72474" lon="7.03689">
        <ele>249.1</ele>
        <time>2024-01-21T11:35:55Z</time>
      </trkpt>
      <trkpt lat="48.72472" lon="7.03689">
        <ele>249.1</ele>
        <time>2024-01-21T11:35:57Z</time>
      </trkpt>
      <trkpt lat="48.72457" lon="7.03704">
        <ele>249.7</ele>
        <time>2024-01-21T11:36:08Z</time>
      </trkpt>
      <trkpt lat="48.72448" lon="7.03724">
        <ele>250</ele>
        <time>2024-01-21T11:36:16Z</time>
      </trkpt>
      <trkpt lat="48.7245" lon="7.03725">
        <ele>250</ele>
        <time>2024-01-21T11:36:53Z</time>
      </trkpt>
      <trkpt lat="48.72451" lon="7.03727">
        <ele>250</ele>
        <time>2024-01-21T11:36:54Z</time>
      </trkpt>
      <trkpt lat="48.72463" lon="7.03751">
        <ele>249.8</ele>
        <time>2024-01-21T11:37:01Z</time>
      </trkpt>
      <trkpt lat="48.7247" lon="7.03778">
        <ele>249.2</ele>
        <time>2024-01-21T11:37:06Z</time>
      </trkpt>
      <trkpt lat="48.72467" lon="7.03805">
        <ele>249</ele>
        <time>2024-01-21T11:37:11Z</time>
      </trkpt>
      <trkpt lat="48.72451" lon="7.03824">
        <ele>249.6</ele>
        <time>2024-01-21T11:37:17Z</time>
      </trkpt>
      <trkpt lat="48.72434" lon="7.03838">
        <ele>250.5</ele>
        <time>2024-01-21T11:37:22Z</time>
      </trkpt>
      <trkpt lat="48.72423" lon="7.0385">
        <ele>250.9</ele>
        <time>2024-01-21T11:37:27Z</time>
      </trkpt>
      <trkpt lat="48.72429" lon="7.03862">
        <ele>250.8</ele>
        <time>2024-01-21T11:37:35Z</time>
      </trkpt>
      <trkpt lat="48.72414" lon="7.03847">
        <ele>251.3</ele>
        <time>2024-01-21T11:37:48Z</time>
      </trkpt>
      <trkpt lat="48.72412" lon="7.03847">
        <ele>251.4</ele>
        <time>2024-01-21T11:37:50Z</time>
      </trkpt>
      <trkpt lat="48.72413" lon="7.03844">
        <ele>251.3</ele>
        <time>2024-01-21T11:37:59Z</time>
      </trkpt>
      <trkpt lat="48.72417" lon="7.03849">
        <ele>251.2</ele>
        <time>2024-01-21T11:38:01Z</time>
      </trkpt>
      <trkpt lat="48.7243" lon="7.03873">
        <ele>250.8</ele>
        <time>2024-01-21T11:38:06Z</time>
      </trkpt>
      <trkpt lat="48.72427" lon="7.03892">
        <ele>251.2</ele>
        <time>2024-01-21T11:38:12Z</time>
      </trkpt>
      <trkpt lat="48.7242" lon="7.0389">
        <ele>251.5</ele>
        <time>2024-01-21T11:38:15Z</time>
      </trkpt>
      <trkpt lat="48.72403" lon="7.03878">
        <ele>252</ele>
        <time>2024-01-21T11:38:19Z</time>
      </trkpt>
      <trkpt lat="48.72391" lon="7.03857">
        <ele>252.1</ele>
        <time>2024-01-21T11:38:23Z</time>
      </trkpt>
      <trkpt lat="48.72378" lon="7.03834">
        <ele>252.5</ele>
        <time>2024-01-21T11:38:28Z</time>
      </trkpt>
      <trkpt lat="48.72373" lon="7.03824">
        <ele>252.6</ele>
        <time>2024-01-21T11:38:31Z</time>
      </trkpt>
      <trkpt lat="48.72368" lon="7.03799">
        <ele>252.8</ele>
        <time>2024-01-21T11:38:38Z</time>
      </trkpt>
      <trkpt lat="48.72383" lon="7.03783">
        <ele>252.4</ele>
        <time>2024-01-21T11:38:45Z</time>
      </trkpt>
      <trkpt lat="48.72385" lon="7.03781">
        <ele>252.3</ele>
        <time>2024-01-21T11:38:46Z</time>
      </trkpt>
      <trkpt lat="48.72397" lon="7.03762">
        <ele>251.9</ele>
        <time>2024-01-21T11:38:52Z</time>
      </trkpt>
      <trkpt lat="48.72437" lon="7.03756">
        <ele>250.7</ele>
        <time>2024-01-21T11:43:37Z</time>
      </trkpt>
      <trkpt lat="48.7245" lon="7.03777">
        <ele>250.1</ele>
        <time>2024-01-21T11:43:42Z</time>
      </trkpt>
      <trkpt lat="48.72448" lon="7.03804">
        <ele>249.9</ele>
        <time>2024-01-21T11:43:48Z</time>
      </trkpt>
      <trkpt lat="48.72446" lon="7.03811">
        <ele>250</ele>
        <time>2024-01-21T11:43:49Z</time>
      </trkpt>
      <trkpt lat="48.72447" lon="7.03814">
        <ele>249.8</ele>
        <time>2024-01-21T11:43:51Z</time>
      </trkpt>
      <trkpt lat="48.72449" lon="7.03823">
        <ele>249.8</ele>
        <time>2024-01-21T11:43:54Z</time>
      </trkpt>
      <trkpt lat="48.72446" lon="7.03853">
        <ele>250</ele>
        <time>2024-01-21T11:44:01Z</time>
      </trkpt>
      <trkpt lat="48.72452" lon="7.03879">
        <ele>250.1</ele>
        <time>2024-01-21T11:44:06Z</time>
      </trkpt>
      <trkpt lat="48.72465" lon="7.03903">
        <ele>250.2</ele>
        <time>2024-01-21T11:44:11Z</time>
      </trkpt>
      <trkpt lat="48.72477" lon="7.03925">
        <ele>250.4</ele>
        <time>2024-01-21T11:44:15Z</time>
      </trkpt>
      <trkpt lat="48.72487" lon="7.03949">
        <ele>250.5</ele>
        <time>2024-01-21T11:44:19Z</time>
      </trkpt>
      <trkpt lat="48.72495" lon="7.03974">
        <ele>250.2</ele>
        <time>2024-01-21T11:44:23Z</time>
      </trkpt>
      <trkpt lat="48.72505" lon="7.03999">
        <ele>249.5</ele>
        <time>2024-01-21T11:44:27Z</time>
      </trkpt>
      <trkpt lat="48.72515" lon="7.04023">
        <ele>248.7</ele>
        <time>2024-01-21T11:44:31Z</time>
      </trkpt>
      <trkpt lat="48.72519" lon="7.04034">
        <ele>248.4</ele>
        <time>2024-01-21T11:44:33Z</time>
      </trkpt>
      <trkpt lat="48.72519" lon="7.04051">
        <ele>248.3</ele>
        <time>2024-01-21T11:44:36Z</time>
      </trkpt>
      <trkpt lat="48.72517" lon="7.04068">
        <ele>248.4</ele>
        <time>2024-01-21T11:44:41Z</time>
      </trkpt>
      <trkpt lat="48.72518" lon="7.04069">
        <ele>248.3</ele>
        <time>2024-01-21T11:44:43Z</time>
      </trkpt>
      <trkpt lat="48.7251" lon="7.0405">
        <ele>248.6</ele>
        <time>2024-01-21T11:44:49Z</time>
      </trkpt>
      <trkpt lat="48.72505" lon="7.04011">
        <ele>249.3</ele>
        <time>2024-01-21T11:45:34Z</time>
      </trkpt>
      <trkpt lat="48.72495" lon="7.03985">
        <ele>250.1</ele>
        <time>2024-01-21T11:45:39Z</time>
      </trkpt>
      <trkpt lat="48.72484" lon="7.0396">
        <ele>250.6</ele>
        <time>2024-01-21T11:45:44Z</time>
      </trkpt>
      <trkpt lat="48.72472" lon="7.03935">
        <ele>250.6</ele>
        <time>2024-01-21T11:45:49Z</time>
      </trkpt>
      <trkpt lat="48.72459" lon="7.03913">
        <ele>250.5</ele>
        <time>2024-01-21T11:45:54Z</time>
      </trkpt>
      <trkpt lat="48.72445" lon="7.03893">
        <ele>250.6</ele>
        <time>2024-01-21T11:45:59Z</time>
      </trkpt>
      <trkpt lat="48.72438" lon="7.03882">
        <ele>250.6</ele>
        <time>2024-01-21T11:46:03Z</time>
      </trkpt>
      <trkpt lat="48.7244" lon="7.03884">
        <ele>250.6</ele>
        <time>2024-01-21T11:46:07Z</time>
      </trkpt>
      <trkpt lat="48.72441" lon="7.03885">
        <ele>250.6</ele>
        <time>2024-01-21T11:46:08Z</time>
      </trkpt>
      <trkpt lat="48.72442" lon="7.03886">
        <ele>250.6</ele>
        <time>2024-01-21T11:46:09Z</time>
      </trkpt>
      <trkpt lat="48.72443" lon="7.03888">
        <ele>250.6</ele>
        <time>2024-01-21T11:46:11Z</time>
      </trkpt>
      <trkpt lat="48.72448" lon="7.03892">
        <ele>250.5</ele>
        <time>2024-01-21T11:46:18Z</time>
      </trkpt>
      <trkpt lat="48.72458" lon="7.03914">
        <ele>250.5</ele>
        <time>2024-01-21T11:46:25Z</time>
      </trkpt>
      <trkpt lat="48.72473" lon="7.03933">
        <ele>250.6</ele>
        <time>2024-01-21T11:46:29Z</time>
      </trkpt>
      <trkpt lat="48.72487" lon="7.03958">
        <ele>250.5</ele>
        <time>2024-01-21T11:46:33Z</time>
      </trkpt>
      <trkpt lat="48.72499" lon="7.03988">
        <ele>249.9</ele>
        <time>2024-01-21T11:46:37Z</time>
      </trkpt>
      <trkpt lat="48.72509" lon="7.04016">
        <ele>249</ele>
        <time>2024-01-21T11:46:41Z</time>
      </trkpt>
      <trkpt lat="48.72513" lon="7.04029">
        <ele>248.7</ele>
        <time>2024-01-21T11:46:44Z</time>
      </trkpt>
      <trkpt lat="48.72507" lon="7.04001">
        <ele>249.3</ele>
        <time>2024-01-21T11:46:52Z</time>
      </trkpt>
      <trkpt lat="48.72504" lon="7.03993">
        <ele>249.6</ele>
        <time>2024-01-21T11:46:53Z</time>
      </trkpt>
      <trkpt lat="48.72496" lon="7.03966">
        <ele>250.2</ele>
        <time>2024-01-21T11:47:01Z</time>
      </trkpt>
      <trkpt lat="48.72486" lon="7.03941">
        <ele>250.4</ele>
        <time>2024-01-21T11:47:10Z</time>
      </trkpt>
      <trkpt lat="48.72477" lon="7.03918">
        <ele>250.2</ele>
        <time>2024-01-21T11:47:17Z</time>
      </trkpt>
      <trkpt lat="48.72467" lon="7.03893">
        <ele>249.8</ele>
        <time>2024-01-21T11:47:27Z</time>
      </trkpt>
      <trkpt lat="48.72467" lon="7.03885">
        <ele>249.6</ele>
        <time>2024-01-21T11:47:30Z</time>
      </trkpt>
      <trkpt lat="48.72462" lon="7.0387">
        <ele>249.5</ele>
        <time>2024-01-21T11:47:35Z</time>
      </trkpt>
      <trkpt lat="48.72464" lon="7.03869">
        <ele>249.4</ele>
        <time>2024-01-21T11:47:37Z</time>
      </trkpt>
      <trkpt lat="48.72479" lon="7.0389">
        <ele>249.5</ele>
        <time>2024-01-21T11:47:43Z</time>
      </trkpt>
      <trkpt lat="48.7249" lon="7.0392">
        <ele>250</ele>
        <time>2024-01-21T11:47:47Z</time>
      </trkpt>
      <trkpt lat="48.72498" lon="7.03943">
        <ele>250.2</ele>
        <time>2024-01-21T11:47:50Z</time>
      </trkpt>
      <trkpt lat="48.72494" lon="7.03954">
        <ele>250.4</ele>
        <time>2024-01-21T11:47:53Z</time>
      </trkpt>
      <trkpt lat="48.72483" lon="7.03932">
        <ele>250.4</ele>
        <time>2024-01-21T11:47:59Z</time>
      </trkpt>
      <trkpt lat="48.72471" lon="7.03907">
        <ele>250.1</ele>
        <time>2024-01-21T11:48:05Z</time>
      </trkpt>
      <trkpt lat="48.72462" lon="7.03884">
        <ele>249.8</ele>
        <time>2024-01-21T11:48:11Z</time>
      </trkpt>
      <trkpt lat="48.72452" lon="7.03858">
        <ele>249.6</ele>
        <time>2024-01-21T11:48:18Z</time>
      </trkpt>
      <trkpt lat="48.72452" lon="7.03846">
        <ele>249.6</ele>
        <time>2024-01-21T11:48:22Z</time>
      </trkpt>
      <trkpt lat="48.72463" lon="7.03839">
        <ele>249.1</ele>
        <time>2024-01-21T11:48:29Z</time>
      </trkpt>
      <trkpt lat="48.72464" lon="7.03843">
        <ele>249</ele>
        <time>2024-01-21T11:48:32Z</time>
      </trkpt>
      <trkpt lat="48.72454" lon="7.03853">
        <ele>249.6</ele>
        <time>2024-01-21T11:48:38Z</time>
      </trkpt>
      <trkpt lat="48.72461" lon="7.03878">
        <ele>249.7</ele>
        <time>2024-01-21T11:48:52Z</time>
      </trkpt>
      <trkpt lat="48.7246" lon="7.03871">
        <ele>249.6</ele>
        <time>2024-01-21T11:49:03Z</time>
      </trkpt>
      <trkpt lat="48.72457" lon="7.03861">
        <ele>249.6</ele>
        <time>2024-01-21T11:49:06Z</time>
      </trkpt>
    </trkseg>
  </trk>
</gpx>